createdAt,value
2019-03-20T00:03:00.387Z,52.30
2019-03-20T00:08:06.593Z,52.30
2019-03-20T00:13:12.586Z,52.30
2019-03-20T00:18:18.137Z,52.20
2019-03-20T00:23:24.895Z,52.40
2019-03-20T00:28:31.074Z,52.30
2019-03-20T00:33:36.662Z,52.40
2019-03-20T00:38:43.367Z,52.40
2019-03-20T00:43:49.651Z,52.40
2019-03-20T00:48:55.403Z,52.40
2019-03-20T00:54:02.919Z,52.40
2019-03-20T00:59:08.610Z,52.30
2019-03-20T01:04:15.150Z,52.20
2019-03-20T01:09:20.254Z,52.30
2019-03-20T01:14:26.916Z,52.30
2019-03-20T01:19:32.829Z,52.30
2019-03-20T01:24:38.882Z,52.20
2019-03-20T01:29:45.115Z,52.40
2019-03-20T01:34:51.411Z,52.40
2019-03-20T01:39:57.635Z,52.40
2019-03-20T01:45:03.972Z,52.40
2019-03-20T01:50:12.294Z,52.40
2019-03-20T01:55:19.134Z,52.50
2019-03-20T02:00:24.927Z,52.40
2019-03-20T02:05:36.349Z,52.40
2019-03-20T02:10:38.598Z,52.40
2019-03-20T02:15:45.545Z,52.50
2019-03-20T02:20:52.150Z,52.50
2019-03-20T02:25:58.149Z,52.40
2019-03-20T02:31:07.369Z,52.50
2019-03-20T02:36:13.435Z,52.20
2019-03-20T02:41:21.286Z,52.50
2019-03-20T02:46:27.635Z,52.50
2019-03-20T02:51:33.290Z,52.50
2019-03-20T02:56:39.095Z,52.50
2019-03-20T03:01:45.908Z,52.50
2019-03-20T03:06:52.688Z,52.60
2019-03-20T03:11:59.124Z,52.50
2019-03-20T03:17:06.139Z,52.50
2019-03-20T03:22:13.102Z,52.50
2019-03-20T03:27:21.142Z,52.50
2019-03-20T03:32:27.036Z,52.40
2019-03-20T03:37:32.685Z,52.50
2019-03-20T03:42:38.310Z,52.50
2019-03-20T03:47:44.692Z,52.50
2019-03-20T03:52:50.786Z,52.50
2019-03-20T03:57:56.537Z,52.50
2019-03-20T04:03:02.828Z,52.50
2019-03-20T04:08:08.631Z,52.50
2019-03-20T04:13:14.814Z,53.20
2019-03-20T04:18:21.201Z,52.50
2019-03-20T04:23:27.505Z,52.40
2019-03-20T04:28:33.817Z,52.50
2019-03-20T04:33:39.200Z,52.50
2019-03-20T04:38:46.172Z,52.50
2019-03-20T04:43:51.701Z,52.50
2019-03-20T04:48:57.460Z,52.40
2019-03-20T04:54:03.693Z,52.50
2019-03-20T04:59:09.233Z,52.50
2019-03-20T05:04:15.293Z,52.40
2019-03-20T05:09:21.324Z,52.40
2019-03-20T05:14:28.583Z,52.40
2019-03-20T05:19:34.069Z,52.40
2019-03-20T05:24:40.977Z,52.40
2019-03-20T05:29:46.294Z,52.40
2019-03-20T05:34:52.913Z,53.10
2019-03-20T05:39:59.645Z,52.40
2019-03-20T05:45:05.625Z,52.40
2019-03-20T05:50:13.421Z,52.40
2019-03-20T05:55:19.491Z,52.50
2019-03-20T06:00:26.586Z,52.40
2019-03-20T06:05:33.118Z,53.10
2019-03-20T06:10:40.290Z,52.30
2019-03-20T06:15:46.686Z,52.30
2019-03-20T06:20:53.696Z,52.40
2019-03-20T06:25:59.632Z,52.30
2019-03-20T06:31:06.551Z,52.40
2019-03-20T06:36:15.095Z,52.40
2019-03-20T06:41:21.553Z,52.40
2019-03-20T06:46:28.560Z,52.30
2019-03-20T06:51:35.245Z,52.40
2019-03-20T06:56:40.773Z,52.30
2019-03-20T07:01:46.468Z,52.30
2019-03-20T07:07:22.020Z,52.30
2019-03-20T07:12:29.141Z,52.30
2019-03-20T07:17:35.826Z,52.40
2019-03-20T07:22:42.143Z,52.40
2019-03-20T07:27:50.082Z,52.30
2019-03-20T07:32:57.621Z,52.40
2019-03-20T07:38:04.370Z,52.50
2019-03-20T07:43:10.620Z,52.40
2019-03-20T07:48:22.144Z,52.50
2019-03-20T07:53:25.297Z,52.40
2019-03-20T07:58:33.743Z,52.50
2019-03-20T08:03:40.101Z,52.40
2019-03-20T08:08:47.340Z,52.50
2019-03-20T08:13:54.480Z,52.50
2019-03-20T08:19:01.297Z,52.50
2019-03-20T08:24:09.343Z,52.60
2019-03-20T08:29:16.445Z,51.60
2019-03-20T08:34:24.891Z,51.70
2019-03-20T08:39:31.500Z,51.60
2019-03-20T08:44:36.996Z,51.60
2019-03-20T08:49:45.163Z,51.80
2019-03-20T08:54:51.932Z,51.80
2019-03-20T08:59:58.374Z,51.80
2019-03-20T09:05:05.211Z,51.90
2019-03-20T09:10:17.429Z,51.90
2019-03-20T09:15:25.207Z,52.00
2019-03-20T09:20:31.472Z,51.90
2019-03-20T09:25:38.252Z,51.90
2019-03-20T09:30:45.056Z,52.00
2019-03-20T09:35:51.784Z,52.10
2019-03-20T09:40:58.371Z,52.10
2019-03-20T09:46:05.056Z,52.00
2019-03-20T09:51:10.995Z,52.10
2019-03-20T09:56:18.605Z,52.20
2019-03-20T10:01:24.845Z,52.20
2019-03-20T10:06:30.956Z,52.30
2019-03-20T10:11:36.783Z,52.30
2019-03-20T10:16:42.415Z,52.40
2019-03-20T10:21:48.275Z,52.40
2019-03-20T10:26:54.807Z,52.40
2019-03-20T10:32:01.148Z,52.50
2019-03-20T10:37:06.969Z,52.50
2019-03-20T10:42:12.705Z,52.50
2019-03-20T10:47:18.658Z,52.00
2019-03-20T10:52:25.584Z,52.50
2019-03-20T10:57:31.373Z,52.60
2019-03-20T11:02:38.376Z,52.50
2019-03-20T11:07:46.226Z,52.50
2019-03-20T11:12:52.945Z,52.60
2019-03-20T11:17:58.681Z,52.60
2019-03-20T11:23:05.065Z,52.50
2019-03-20T11:28:11.364Z,52.50
2019-03-20T11:33:18.776Z,52.60
2019-03-20T11:38:24.890Z,52.60
2019-03-20T11:43:30.934Z,52.70
2019-03-20T11:48:36.952Z,52.60
2019-03-20T11:53:41.818Z,52.60
2019-03-20T11:58:47.958Z,52.60
2019-03-20T12:03:53.909Z,52.60
2019-03-20T12:09:01.170Z,52.60
2019-03-20T12:14:07.862Z,52.60
2019-03-20T12:19:14.240Z,53.20
2019-03-20T12:24:20.374Z,52.50
2019-03-20T12:29:26.730Z,52.60
2019-03-20T12:34:33.152Z,52.50
2019-03-20T12:39:40.003Z,52.60
2019-03-20T12:44:46.661Z,52.60
2019-03-20T12:49:52.989Z,52.60
2019-03-20T12:54:58.481Z,52.60
2019-03-20T13:00:04.153Z,52.80
2019-03-20T13:05:11.133Z,52.70
2019-03-20T13:10:17.577Z,52.70
2019-03-20T13:15:23.393Z,52.70
2019-03-20T13:20:29.672Z,52.70
2019-03-20T13:25:35.998Z,52.70
2019-03-20T13:30:45.427Z,52.70
2019-03-20T13:35:51.427Z,52.70
2019-03-20T13:40:57.665Z,52.70
2019-03-20T13:46:03.841Z,52.70
2019-03-20T13:51:10.530Z,52.70
2019-03-20T13:56:17.976Z,52.70
2019-03-20T14:01:23.671Z,52.60
2019-03-20T14:06:29.461Z,52.70
2019-03-20T14:11:36.323Z,52.70
2019-03-20T14:16:42.568Z,53.30
2019-03-20T14:21:47.981Z,52.80
2019-03-20T14:26:56.009Z,52.80
2019-03-20T14:32:02.738Z,52.80
2019-03-20T14:37:08.705Z,52.90
2019-03-20T14:42:21.411Z,52.90
2019-03-20T14:47:27.351Z,53.00
2019-03-20T14:52:33.193Z,52.90
2019-03-20T14:57:39.012Z,53.00
2019-03-20T15:02:45.353Z,53.00
2019-03-20T15:07:50.857Z,53.00
2019-03-20T15:12:57.031Z,53.10
2019-03-20T15:18:03.697Z,53.00
2019-03-20T15:23:10.936Z,53.10
2019-03-20T15:28:17.655Z,53.10
2019-03-20T15:33:23.464Z,53.10
2019-03-20T15:38:31.239Z,53.10
2019-03-20T15:43:36.968Z,53.10
2019-03-20T15:48:43.689Z,53.10
2019-03-20T15:53:50.850Z,53.10
2019-03-20T15:58:56.085Z,53.10
2019-03-20T16:04:01.635Z,53.10
2019-03-20T16:09:09.449Z,53.20
2019-03-20T16:14:15.882Z,53.10
2019-03-20T16:19:22.170Z,53.10
2019-03-20T16:24:27.800Z,53.10
2019-03-20T16:29:35.042Z,53.10
2019-03-20T16:34:42.579Z,53.10
2019-03-20T16:39:48.368Z,53.10
2019-03-20T16:44:54.943Z,53.20
2019-03-20T16:50:03.462Z,53.20
2019-03-20T16:55:11.783Z,53.20
2019-03-20T17:00:28.911Z,53.20
